createdAt,value
2017-11-12T00:02:06.969Z,99.80
2017-11-12T00:04:34.488Z,99.80
2017-11-12T00:07:02.424Z,99.70
2017-11-12T00:09:29.909Z,99.70
2017-11-12T00:11:57.440Z,99.60
2017-11-12T00:14:24.989Z,99.60
2017-11-12T00:16:52.497Z,99.60
2017-11-12T00:19:20.410Z,99.60
2017-11-12T00:21:47.914Z,99.60
2017-11-12T00:24:16.864Z,99.40
2017-11-12T00:26:44.357Z,99.40
2017-11-12T00:29:11.856Z,99.40
2017-11-12T00:31:39.391Z,99.40
2017-11-12T00:34:07.272Z,99.30
2017-11-12T00:36:35.123Z,99.30
2017-11-12T00:39:03.024Z,99.30
2017-11-12T00:41:30.545Z,99.20
2017-11-12T00:43:58.410Z,99.20
2017-11-12T00:46:26.330Z,99.00
2017-11-12T00:48:53.846Z,99.00
2017-11-12T00:51:21.373Z,99.00
2017-11-12T00:53:48.904Z,98.90
2017-11-12T00:56:16.829Z,98.90
2017-11-12T00:58:44.757Z,98.90
2017-11-12T01:01:12.256Z,98.90
2017-11-12T01:03:40.175Z,98.90
2017-11-12T01:06:07.711Z,98.90
2017-11-12T01:08:35.237Z,99.00
2017-11-12T01:11:03.129Z,99.00
2017-11-12T01:13:31.166Z,99.00
2017-11-12T01:15:59.077Z,99.20
2017-11-12T01:18:27.387Z,99.20
2017-11-12T01:20:55.338Z,99.40
2017-11-12T01:23:22.816Z,99.40
2017-11-12T01:25:50.328Z,99.50
2017-11-12T01:28:18.775Z,99.60
2017-11-12T01:30:48.634Z,99.80
2017-11-12T01:33:16.589Z,99.80
2017-11-12T01:35:44.085Z,99.80
2017-11-12T01:38:11.566Z,99.60
2017-11-12T01:40:39.058Z,99.60
2017-11-12T01:43:06.535Z,99.60
2017-11-12T01:45:34.039Z,99.80
2017-11-12T01:48:01.518Z,99.90
2017-11-12T01:50:29.421Z,99.90
2017-11-12T01:52:56.901Z,99.90
2017-11-12T01:55:24.395Z,99.90
2017-11-12T01:57:52.282Z,99.90
2017-11-12T02:00:19.774Z,99.90
2017-11-12T02:02:47.270Z,99.90
2017-11-12T02:05:14.764Z,99.90
2017-11-12T02:07:42.232Z,99.90
2017-11-12T02:10:09.737Z,99.90
2017-11-12T02:12:38.181Z,99.90
2017-11-12T02:15:06.581Z,99.90
2017-11-12T02:17:34.092Z,99.90
2017-11-12T02:20:01.588Z,99.90
2017-11-12T02:22:29.078Z,99.90
2017-11-12T02:24:56.564Z,99.90
2017-11-12T02:27:24.080Z,99.90
2017-11-12T02:29:51.555Z,99.90
2017-11-12T02:32:19.448Z,99.90
2017-11-12T02:34:46.919Z,99.90
2017-11-12T02:37:14.422Z,99.90
2017-11-12T02:39:41.901Z,99.90
2017-11-12T02:42:09.813Z,99.90
2017-11-12T02:44:37.295Z,99.90
2017-11-12T02:47:04.800Z,99.90
2017-11-12T02:49:32.286Z,99.90
2017-11-12T02:51:59.789Z,99.90
2017-11-12T02:54:28.209Z,99.90
2017-11-12T02:56:55.704Z,99.90
2017-11-12T02:59:23.204Z,99.90
2017-11-12T03:01:51.082Z,99.90
2017-11-12T03:04:18.560Z,99.90
2017-11-12T03:06:46.056Z,99.90
2017-11-12T03:09:13.545Z,99.90
2017-11-12T03:11:43.352Z,99.90
2017-11-12T03:14:12.175Z,99.90
2017-11-12T03:16:39.675Z,99.90
2017-11-12T03:19:07.159Z,99.90
2017-11-12T03:21:35.032Z,99.90
2017-11-12T03:24:02.922Z,99.90
2017-11-12T03:26:30.407Z,99.90
2017-11-12T03:28:57.908Z,99.90
2017-11-12T03:31:25.814Z,99.90
2017-11-12T03:33:53.288Z,99.90
2017-11-12T03:36:20.780Z,99.90
2017-11-12T03:38:48.656Z,99.90
2017-11-12T03:41:16.579Z,99.90
2017-11-12T03:43:44.047Z,99.90
2017-11-12T03:46:11.547Z,99.90
2017-11-12T03:48:39.420Z,99.90
2017-11-12T03:51:06.929Z,99.90
2017-11-12T03:53:34.420Z,99.90
2017-11-12T03:56:02.320Z,99.90
2017-11-12T03:58:31.748Z,99.90
2017-11-12T04:00:59.239Z,99.90
2017-11-12T04:03:26.719Z,99.90
2017-11-12T04:05:54.606Z,99.80
2017-11-12T04:08:22.099Z,99.80
2017-11-12T04:10:49.580Z,99.80
2017-11-12T04:13:17.987Z,99.80
2017-11-12T04:15:45.483Z,99.90
2017-11-12T04:18:12.966Z,99.90
2017-11-12T04:20:40.467Z,99.90
2017-11-12T04:23:07.949Z,99.90
2017-11-12T04:25:35.456Z,99.90
2017-11-12T04:28:03.333Z,99.90
2017-11-12T04:30:31.224Z,99.90
2017-11-12T04:32:58.699Z,99.90
2017-11-12T04:35:26.215Z,99.90
2017-11-12T04:37:55.091Z,99.90
2017-11-12T04:40:22.577Z,99.90
2017-11-12T04:42:51.027Z,99.90
2017-11-12T04:45:18.528Z,99.90
2017-11-12T04:47:46.022Z,99.90
2017-11-12T04:50:13.519Z,99.90
2017-11-12T04:52:41.388Z,99.90
2017-11-12T04:55:09.287Z,99.90
2017-11-12T04:57:36.760Z,99.90
2017-11-12T05:00:04.275Z,99.90
2017-11-12T05:02:31.760Z,99.90
2017-11-12T05:04:59.268Z,99.90
2017-11-12T05:07:26.740Z,99.90
2017-11-12T05:09:54.629Z,99.90
2017-11-12T05:12:22.116Z,99.90
2017-11-12T05:14:49.624Z,99.90
2017-11-12T05:17:17.518Z,99.90
2017-11-12T05:19:45.940Z,99.90
2017-11-12T05:22:13.449Z,99.90
2017-11-12T05:24:40.937Z,99.90
2017-11-12T05:27:08.414Z,99.90
2017-11-12T05:29:35.923Z,99.90
2017-11-12T05:32:03.407Z,99.90
2017-11-12T05:34:30.913Z,99.90
2017-11-12T05:36:58.787Z,99.90
2017-11-12T05:39:28.655Z,99.90
2017-11-12T05:41:56.136Z,99.90
2017-11-12T05:44:23.637Z,99.90
2017-11-12T05:46:51.127Z,99.90
2017-11-12T05:49:18.623Z,99.90
2017-11-12T05:51:46.502Z,99.90
2017-11-12T05:54:14.402Z,99.90
2017-11-12T05:56:41.884Z,99.90
2017-11-12T05:59:10.326Z,99.90
2017-11-12T06:01:37.800Z,99.90
2017-11-12T06:04:05.299Z,99.90
2017-11-12T06:06:32.780Z,99.90
2017-11-12T06:09:00.676Z,99.90
2017-11-12T06:11:28.173Z,99.90
2017-11-12T06:13:55.655Z,99.90
2017-11-12T06:16:23.539Z,99.90
2017-11-12T06:18:51.043Z,99.90
2017-11-12T06:21:18.524Z,99.90
2017-11-12T06:23:46.012Z,99.90
2017-11-12T06:26:13.509Z,99.90
2017-11-12T06:28:41.012Z,99.90
2017-11-12T06:31:08.891Z,99.90
2017-11-12T06:33:36.392Z,99.90
2017-11-12T06:36:03.883Z,99.90
2017-11-12T06:38:31.404Z,99.90
2017-11-12T06:40:58.885Z,99.80
2017-11-12T06:43:26.389Z,99.80
2017-11-12T06:45:54.832Z,99.90
2017-11-12T06:48:22.336Z,99.90
2017-11-12T06:50:49.834Z,99.90
2017-11-12T06:53:17.332Z,99.90
2017-11-12T06:55:44.819Z,99.90
2017-11-12T06:58:12.392Z,99.90
2017-11-12T07:00:39.876Z,99.90
2017-11-12T07:03:07.377Z,99.90
2017-11-12T07:05:34.856Z,99.90
2017-11-12T07:08:02.363Z,99.90
2017-11-12T07:10:30.243Z,99.90
2017-11-12T07:12:58.886Z,99.90
2017-11-12T07:15:26.373Z,99.90
2017-11-12T07:17:54.269Z,99.90
2017-11-12T07:20:21.767Z,99.90
2017-11-12T07:22:49.252Z,99.90
2017-11-12T07:25:17.155Z,99.90
2017-11-12T07:27:44.645Z,99.90
2017-11-12T07:30:12.212Z,99.90
2017-11-12T07:32:39.706Z,99.00
2017-11-12T07:35:07.587Z,97.90
2017-11-12T07:40:09.072Z,97.80
2017-11-12T07:42:36.556Z,97.40
2017-11-12T07:45:04.079Z,97.30
2017-11-12T07:47:32.506Z,97.30
2017-11-12T07:50:00.008Z,97.50
2017-11-12T07:52:27.496Z,97.80
2017-11-12T07:54:54.996Z,97.80
2017-11-12T07:57:22.487Z,97.80
2017-11-12T07:59:50.413Z,98.00
2017-11-12T08:02:17.914Z,98.20
2017-11-12T08:04:45.425Z,98.20
2017-11-12T08:07:12.918Z,98.30
2017-11-12T08:09:40.423Z,98.20
2017-11-12T08:12:07.916Z,98.30
2017-11-12T08:14:35.439Z,98.50
2017-11-12T08:17:02.933Z,98.60
2017-11-12T08:19:30.816Z,99.00
2017-11-12T08:21:58.799Z,99.10
2017-11-12T08:24:26.337Z,99.10
2017-11-12T08:26:54.611Z,99.40
2017-11-12T08:29:22.508Z,99.50
2017-11-12T08:31:49.993Z,99.50
2017-11-12T08:34:17.500Z,99.50
2017-11-12T08:36:46.380Z,99.60
2017-11-12T08:39:14.900Z,99.60
2017-11-12T08:41:43.358Z,99.50
2017-11-12T08:44:12.375Z,99.60
2017-11-12T08:46:39.860Z,99.60
2017-11-12T08:49:07.366Z,99.70
2017-11-12T08:51:35.258Z,99.80
2017-11-12T08:54:02.761Z,99.80
2017-11-12T08:56:30.259Z,99.90
2017-11-12T08:58:57.774Z,99.90
2017-11-12T09:01:25.280Z,99.90
2017-11-12T09:03:52.777Z,99.90
2017-11-12T09:06:20.265Z,99.90
2017-11-12T09:08:47.760Z,99.20
2017-11-12T09:11:15.258Z,98.90
2017-11-12T09:13:42.749Z,98.90
2017-11-12T09:16:10.300Z,99.00
2017-11-12T09:18:38.208Z,98.00
2017-11-12T09:21:05.693Z,98.00
2017-11-12T09:23:35.152Z,97.80
2017-11-12T09:26:02.657Z,97.80
2017-11-12T09:28:30.148Z,97.70
2017-11-12T09:30:58.053Z,98.00
2017-11-12T09:33:25.558Z,98.00
2017-11-12T09:35:53.049Z,97.70
2017-11-12T09:38:21.464Z,97.30
2017-11-12T09:40:48.968Z,97.00
2017-11-12T09:43:16.873Z,96.50
2017-11-12T09:45:44.386Z,96.50
2017-11-12T09:48:11.944Z,96.90
2017-11-12T09:50:39.445Z,97.10
2017-11-12T09:53:06.941Z,95.80
2017-11-12T09:55:34.440Z,96.00
2017-11-12T09:58:03.879Z,96.60
2017-11-12T10:00:31.398Z,96.20
2017-11-12T10:02:59.293Z,96.10
2017-11-12T10:05:26.814Z,96.10
2017-11-12T10:07:54.715Z,95.70
2017-11-12T10:10:22.225Z,95.70
2017-11-12T10:12:49.720Z,96.20
2017-11-12T10:15:17.201Z,96.70
2017-11-12T10:17:44.701Z,96.50
2017-11-12T10:20:12.196Z,96.90
2017-11-12T10:22:39.709Z,96.10
2017-11-12T10:25:07.189Z,95.70
2017-11-12T10:27:35.094Z,96.10
2017-11-12T10:30:02.567Z,96.10
2017-11-12T10:32:30.269Z,95.50
2017-11-12T10:34:58.651Z,94.60
2017-11-12T10:37:26.198Z,94.90
2017-11-12T10:39:53.688Z,94.80
2017-11-12T10:42:22.131Z,94.70
2017-11-12T10:44:49.623Z,94.70
2017-11-12T10:47:17.488Z,94.50
2017-11-12T10:49:45.406Z,94.50
2017-11-12T10:52:12.940Z,94.50
2017-11-12T10:54:40.414Z,95.10
2017-11-12T10:57:07.913Z,94.80
2017-11-12T10:59:35.414Z,94.10
2017-11-12T11:02:02.892Z,94.10
2017-11-12T11:04:30.388Z,94.40
2017-11-12T11:06:58.281Z,94.30
2017-11-12T11:09:27.711Z,94.30
2017-11-12T11:11:55.264Z,94.50
2017-11-12T11:14:22.773Z,94.80
2017-11-12T11:16:50.255Z,95.00
2017-11-12T11:19:18.145Z,95.60
2017-11-12T11:21:45.621Z,95.60
2017-11-12T11:24:13.164Z,95.60
2017-11-12T11:26:42.640Z,95.40
2017-11-12T11:29:10.527Z,95.20
2017-11-12T11:31:40.004Z,95.20
2017-11-12T11:34:07.906Z,95.50
2017-11-12T11:36:35.400Z,95.50
2017-11-12T11:39:03.841Z,95.50
2017-11-12T11:41:31.319Z,95.50
2017-11-12T11:43:58.813Z,95.50
2017-11-12T11:46:26.290Z,96.10
2017-11-12T11:48:54.185Z,96.20
2017-11-12T11:51:21.679Z,96.20
2017-11-12T11:53:49.175Z,95.90
2017-11-12T11:56:17.056Z,95.60
2017-11-12T11:58:46.507Z,95.60
2017-11-12T12:01:14.004Z,95.60
2017-11-12T12:03:41.880Z,95.40
2017-11-12T12:06:09.378Z,95.40
2017-11-12T12:08:36.852Z,95.70
2017-11-12T12:11:05.289Z,95.70
2017-11-12T12:13:32.792Z,95.80
2017-11-12T12:16:00.275Z,96.20
2017-11-12T12:18:28.173Z,96.70
2017-11-12T12:20:55.657Z,96.70
2017-11-12T12:23:23.164Z,96.40
2017-11-12T12:25:50.641Z,95.60
2017-11-12T12:28:18.126Z,95.90
2017-11-12T12:30:45.652Z,95.80
2017-11-12T12:33:13.132Z,96.00
2017-11-12T12:35:40.636Z,96.20
2017-11-12T12:38:08.518Z,96.00
2017-11-12T12:40:36.444Z,95.80
2017-11-12T12:43:03.923Z,95.80
2017-11-12T12:45:31.397Z,95.90
2017-11-12T12:47:59.285Z,95.80
2017-11-12T12:50:26.800Z,95.80
2017-11-12T12:52:54.856Z,95.40
2017-11-12T12:55:22.327Z,95.40
2017-11-12T12:57:52.479Z,95.60
2017-11-12T13:00:20.353Z,95.40
2017-11-12T13:02:47.865Z,95.40
2017-11-12T13:05:15.372Z,95.40
2017-11-12T13:07:42.887Z,95.60
2017-11-12T13:10:10.388Z,95.80
2017-11-12T13:12:37.957Z,95.60
2017-11-12T13:15:05.444Z,95.60
2017-11-12T13:17:32.964Z,95.90
2017-11-12T13:20:00.489Z,95.70
2017-11-12T13:22:27.980Z,95.80
2017-11-12T13:24:55.469Z,95.30
2017-11-12T13:27:22.965Z,95.60
2017-11-12T13:29:50.853Z,95.70
2017-11-12T13:32:18.736Z,96.20
2017-11-12T13:34:48.208Z,96.10
2017-11-12T13:37:16.536Z,97.10
2017-11-12T13:39:44.037Z,97.10
2017-11-12T13:42:11.518Z,96.90
2017-11-12T13:44:39.392Z,96.60
2017-11-12T13:47:06.891Z,96.60
2017-11-12T13:49:34.598Z,96.30
2017-11-12T13:52:03.839Z,96.00
2017-11-12T13:54:31.315Z,96.00
2017-11-12T13:56:58.829Z,95.60
2017-11-12T13:59:26.312Z,96.20
2017-11-12T14:01:54.735Z,95.70
2017-11-12T14:04:22.637Z,96.30
2017-11-12T14:06:50.144Z,96.30
2017-11-12T14:09:17.623Z,96.20
2017-11-12T14:11:45.520Z,96.20
2017-11-12T14:14:12.999Z,96.20
2017-11-12T14:16:40.523Z,95.80
2017-11-12T14:19:08.400Z,96.00
2017-11-12T14:21:35.905Z,96.00
2017-11-12T14:24:04.832Z,95.60
2017-11-12T14:26:32.722Z,96.40
2017-11-12T14:29:00.197Z,96.30
2017-11-12T14:31:27.706Z,96.20
2017-11-12T14:33:55.191Z,96.60
2017-11-12T14:36:22.697Z,95.20
2017-11-12T14:38:51.176Z,95.90
2017-11-12T14:41:18.679Z,96.60
2017-11-12T14:43:48.141Z,97.10
2017-11-12T14:46:15.616Z,97.60
2017-11-12T14:48:43.115Z,97.60
2017-11-12T14:51:11.573Z,97.50
2017-11-12T14:53:40.406Z,97.40
2017-11-12T14:56:07.906Z,97.40
2017-11-12T14:58:35.794Z,96.60
2017-11-12T15:01:03.690Z,95.20
2017-11-12T15:03:31.179Z,95.20
2017-11-12T15:06:00.640Z,95.60
2017-11-12T15:08:29.066Z,96.20
2017-11-12T15:10:56.569Z,96.00
2017-11-12T15:13:24.052Z,95.80
2017-11-12T15:15:53.479Z,95.20
2017-11-12T15:18:20.965Z,95.60
2017-11-12T15:20:48.854Z,96.60
2017-11-12T15:23:16.340Z,96.60
2017-11-12T15:25:43.832Z,96.10
2017-11-12T15:28:11.329Z,96.00
2017-11-12T15:30:38.828Z,96.70
2017-11-12T15:33:06.307Z,97.20
2017-11-12T15:35:33.797Z,96.70
2017-11-12T15:38:01.285Z,96.30
2017-11-12T15:40:28.768Z,96.50
2017-11-12T15:42:56.262Z,96.20
2017-11-12T15:45:24.137Z,96.20
2017-11-12T15:47:51.639Z,96.20
2017-11-12T15:50:19.120Z,96.40
2017-11-12T15:52:46.622Z,97.00
2017-11-12T15:55:14.094Z,97.70
2017-11-12T15:57:41.575Z,98.10
2017-11-12T16:00:10.033Z,97.90
2017-11-12T16:02:37.517Z,98.00
2017-11-12T16:05:05.021Z,97.50
2017-11-12T16:07:32.888Z,97.40
2017-11-12T16:10:00.775Z,97.10
2017-11-12T16:12:28.293Z,97.10
2017-11-12T16:14:56.197Z,96.20
2017-11-12T16:17:23.720Z,96.30
2017-11-12T16:19:51.216Z,96.00
2017-11-12T16:22:18.683Z,95.30
2017-11-12T16:24:46.153Z,95.30
2017-11-12T16:27:13.668Z,95.20
2017-11-12T16:29:41.537Z,95.10
2017-11-12T16:32:09.432Z,95.40
2017-11-12T16:34:36.908Z,95.40
2017-11-12T16:37:04.404Z,95.50
2017-11-12T16:39:32.284Z,95.60
2017-11-12T16:42:00.171Z,95.80
2017-11-12T16:44:27.844Z,95.80
2017-11-12T16:46:55.356Z,96.20
2017-11-12T16:49:23.239Z,96.80
2017-11-12T16:51:51.142Z,97.20
2017-11-12T16:54:18.657Z,97.20
2017-11-12T16:56:46.166Z,97.50
2017-11-12T16:59:13.665Z,97.60
2017-11-12T17:01:43.506Z,98.00
2017-11-12T17:04:11.016Z,98.00
2017-11-12T17:06:38.510Z,97.60
2017-11-12T17:09:06.416Z,96.60
2017-11-12T17:11:33.892Z,96.60
2017-11-12T17:14:03.356Z,96.60
2017-11-12T17:16:30.827Z,96.60
2017-11-12T17:18:58.313Z,96.70
2017-11-12T17:21:27.788Z,97.10
2017-11-12T17:23:55.263Z,96.80
2017-11-12T17:26:22.754Z,97.40
2017-11-12T17:28:50.228Z,97.90
2017-11-12T17:31:18.185Z,98.20
2017-11-12T17:33:46.955Z,98.40
2017-11-12T17:36:14.572Z,98.40
2017-11-12T17:38:42.047Z,98.60
2017-11-12T17:41:11.469Z,98.70
2017-11-12T17:43:39.873Z,98.80
2017-11-12T17:46:07.758Z,98.70
2017-11-12T17:48:35.264Z,98.70
2017-11-12T17:51:03.692Z,98.40
2017-11-12T17:53:31.207Z,98.70
2017-11-12T17:55:58.751Z,98.90
2017-11-12T17:58:26.233Z,98.80
2017-11-12T18:00:53.752Z,98.30
2017-11-12T18:03:21.275Z,96.00
2017-11-12T18:05:48.791Z,95.10
2017-11-12T18:08:16.276Z,95.00
2017-11-12T18:10:43.781Z,95.30
2017-11-12T18:13:12.188Z,94.70
2017-11-12T18:15:39.688Z,94.30
2017-11-12T18:18:07.561Z,94.50
2017-11-12T18:20:35.453Z,94.30
2017-11-12T18:23:02.957Z,94.30
2017-11-12T18:25:30.839Z,94.00
2017-11-12T18:27:58.748Z,94.40
2017-11-12T18:30:26.265Z,94.50
2017-11-12T18:32:54.159Z,94.60
2017-11-12T18:35:21.664Z,94.60
2017-11-12T18:37:50.091Z,95.00
2017-11-12T18:40:17.614Z,94.30
2017-11-12T18:42:45.084Z,94.10
2017-11-12T18:45:13.523Z,94.40
2017-11-12T18:47:41.012Z,94.50
2017-11-12T18:50:08.539Z,94.10
2017-11-12T18:52:36.025Z,93.60
2017-11-12T18:55:03.535Z,94.00
2017-11-12T18:57:31.497Z,93.70
2017-11-12T19:00:13.898Z,94.60
2017-11-12T19:02:53.138Z,95.10
2017-11-12T19:05:24.076Z,95.90
2017-11-12T19:07:57.582Z,95.90
2017-11-12T19:10:25.080Z,96.50
2017-11-12T19:12:52.576Z,96.20
2017-11-12T19:15:20.484Z,96.40
2017-11-12T19:18:04.823Z,96.40
2017-11-12T19:20:32.308Z,97.00
2017-11-12T19:23:03.453Z,96.80
2017-11-12T19:25:30.974Z,97.10
2017-11-12T19:27:58.957Z,97.10
2017-11-12T19:30:26.441Z,97.00
2017-11-12T19:32:53.937Z,97.50
2017-11-12T19:35:21.821Z,97.10
2017-11-12T19:37:49.325Z,97.10
2017-11-12T19:40:16.832Z,97.10
2017-11-12T19:42:44.708Z,96.20
2017-11-12T19:45:12.217Z,96.20
2017-11-12T19:47:39.687Z,95.70
2017-11-12T19:50:07.170Z,95.70
2017-11-12T19:52:35.077Z,95.00
2017-11-12T19:55:02.569Z,95.00
2017-11-12T19:57:30.070Z,94.70
2017-11-12T19:59:57.565Z,94.80
2017-11-12T20:02:27.018Z,94.90
2017-11-12T20:04:54.885Z,95.40
2017-11-12T20:07:22.388Z,95.40
2017-11-12T20:09:49.883Z,95.60
2017-11-12T20:12:17.757Z,95.80
2017-11-12T20:14:45.272Z,95.80
2017-11-12T20:17:12.784Z,96.50
2017-11-12T20:19:40.287Z,96.90
2017-11-12T20:22:07.796Z,97.00
2017-11-12T20:24:35.725Z,96.70
2017-11-12T20:27:03.255Z,96.70
2017-11-12T20:29:30.739Z,96.00
2017-11-12T20:31:58.231Z,95.40
2017-11-12T20:34:26.108Z,96.10
2017-11-12T20:36:54.013Z,95.50
2017-11-12T20:39:21.488Z,95.50
2017-11-12T20:41:48.990Z,95.80
2017-11-12T20:44:16.537Z,96.20
2017-11-12T20:46:44.426Z,96.10
2017-11-12T20:49:11.905Z,96.10
2017-11-12T20:51:39.395Z,96.10
2017-11-12T20:54:06.896Z,95.50
2017-11-12T20:56:34.403Z,95.50
2017-11-12T20:59:01.900Z,95.90
2017-11-12T21:01:30.292Z,95.00
2017-11-12T21:03:58.401Z,95.00
2017-11-12T21:06:26.688Z,94.80
2017-11-12T21:08:54.180Z,93.30
2017-11-12T21:11:21.723Z,93.80
2017-11-12T21:13:49.198Z,94.50
2017-11-12T21:16:19.020Z,94.50
2017-11-12T21:18:46.888Z,94.40
2017-11-12T21:21:15.264Z,93.30
2017-11-12T21:23:45.593Z,93.20
2017-11-12T21:26:13.504Z,93.40
2017-11-12T21:28:55.869Z,93.40
2017-11-12T21:31:27.876Z,93.90
2017-11-12T21:34:01.110Z,94.10
2017-11-12T21:36:30.616Z,93.50
2017-11-12T21:38:59.464Z,94.60
2017-11-12T21:41:27.154Z,94.60
2017-11-12T21:43:54.671Z,94.20
2017-11-12T21:46:22.149Z,94.10
2017-11-12T21:48:49.647Z,93.90
2017-11-12T21:51:17.548Z,94.20
2017-11-12T21:53:45.027Z,94.20
2017-11-12T21:56:12.533Z,94.10
2017-11-12T21:58:41.347Z,94.10
2017-11-12T22:01:08.831Z,94.10
2017-11-12T22:03:36.325Z,93.80
2017-11-12T22:06:04.229Z,93.90
2017-11-12T22:08:32.680Z,93.90
2017-11-12T22:11:00.579Z,94.40
2017-11-12T22:13:28.067Z,94.40
2017-11-12T22:15:55.560Z,94.50
2017-11-12T22:18:23.454Z,93.90
2017-11-12T22:20:50.929Z,93.90
2017-11-12T22:23:18.420Z,94.20
2017-11-12T22:25:45.895Z,93.90
2017-11-12T22:28:13.772Z,94.10
2017-11-12T22:30:41.662Z,94.60
2017-11-12T22:33:09.127Z,94.60
2017-11-12T22:35:36.625Z,94.50
2017-11-12T22:38:04.144Z,94.50
2017-11-12T22:40:32.577Z,94.20
2017-11-12T22:43:01.453Z,93.70
2017-11-12T22:45:28.928Z,93.70
2017-11-12T22:47:56.820Z,93.70
2017-11-12T22:50:24.312Z,93.70
2017-11-12T22:52:51.832Z,93.80
2017-11-12T22:55:19.724Z,94.40
2017-11-12T22:57:47.239Z,94.40
2017-11-12T23:00:15.268Z,94.20
2017-11-12T23:02:42.795Z,94.20
2017-11-12T23:05:11.186Z,94.50
2017-11-12T23:07:38.680Z,94.80
2017-11-12T23:10:06.226Z,93.70
2017-11-12T23:12:34.652Z,94.30
2017-11-12T23:15:02.540Z,94.50
2017-11-12T23:17:30.045Z,94.50
2017-11-12T23:19:57.547Z,94.20
2017-11-12T23:22:25.058Z,93.20
2017-11-12T23:24:52.544Z,92.90
2017-11-12T23:27:20.477Z,93.90
2017-11-12T23:29:47.976Z,93.90
2017-11-12T23:32:15.884Z,93.10
2017-11-12T23:34:43.380Z,93.10
2017-11-12T23:37:10.896Z,93.40
2017-11-12T23:39:38.387Z,94.40
2017-11-12T23:42:05.895Z,93.70
2017-11-12T23:44:33.384Z,94.40
2017-11-12T23:47:01.894Z,93.70
2017-11-12T23:49:29.371Z,93.10
2017-11-12T23:51:57.259Z,93.20
2017-11-12T23:54:24.749Z,93.20
2017-11-12T23:56:52.276Z,92.70
2017-11-12T23:59:19.819Z,92.20
